sensor_id;sensor_type;location;lat;lon;timestamp;P1;durP1;ratioP1;P2;durP2;ratioP2
77571;SDS011;67214;47.454;18.966;2023-03-19T00:00:46;19.95;;;13.53;;
77571;SDS011;67214;47.454;18.966;2023-03-19T00:03:13;22.30;;;13.20;;
77571;SDS011;67214;47.454;18.966;2023-03-19T00:05:40;26.05;;;13.98;;
77571;SDS011;67214;47.454;18.966;2023-03-19T00:08:09;21.65;;;13.30;;
77571;SDS011;67214;47.454;18.966;2023-03-19T00:10:37;22.82;;;14.07;;
77571;SDS011;67214;47.454;18.966;2023-03-19T00:13:05;20.48;;;13.43;;
77571;SDS011;67214;47.454;18.966;2023-03-19T00:15:34;23.45;;;12.95;;
77571;SDS011;67214;47.454;18.966;2023-03-19T00:18:01;21.27;;;13.15;;
77571;SDS011;67214;47.454;18.966;2023-03-19T00:20:30;21.90;;;13.22;;
77571;SDS011;67214;47.454;18.966;2023-03-19T00:22:58;22.25;;;14.25;;
77571;SDS011;67214;47.454;18.966;2023-03-19T00:25:26;23.20;;;14.10;;
77571;SDS011;67214;47.454;18.966;2023-03-19T00:27:53;20.30;;;13.55;;
77571;SDS011;67214;47.454;18.966;2023-03-19T00:30:21;22.30;;;13.62;;
77571;SDS011;67214;47.454;18.966;2023-03-19T00:32:48;21.85;;;14.38;;
77571;SDS011;67214;47.454;18.966;2023-03-19T00:35:16;19.77;;;13.72;;
77571;SDS011;67214;47.454;18.966;2023-03-19T00:37:43;23.47;;;13.68;;
77571;SDS011;67214;47.454;18.966;2023-03-19T00:40:11;24.32;;;14.83;;
77571;SDS011;67214;47.454;18.966;2023-03-19T00:42:39;21.15;;;14.50;;
77571;SDS011;67214;47.454;18.966;2023-03-19T00:45:09;22.50;;;14.68;;
77571;SDS011;67214;47.454;18.966;2023-03-19T00:47:37;23.00;;;13.93;;
77571;SDS011;67214;47.454;18.966;2023-03-19T00:50:05;25.60;;;14.53;;
77571;SDS011;67214;47.454;18.966;2023-03-19T00:52:33;24.63;;;14.98;;
77571;SDS011;67214;47.454;18.966;2023-03-19T00:55:01;25.57;;;15.85;;
77571;SDS011;67214;47.454;18.966;2023-03-19T00:57:28;25.10;;;14.53;;
77571;SDS011;67214;47.454;18.966;2023-03-19T00:59:55;36.55;;;14.68;;
77571;SDS011;67214;47.454;18.966;2023-03-19T01:02:23;24.55;;;14.75;;
77571;SDS011;67214;47.454;18.966;2023-03-19T01:04:51;21.55;;;14.63;;
77571;SDS011;67214;47.454;18.966;2023-03-19T01:07:18;24.20;;;15.10;;
77571;SDS011;67214;47.454;18.966;2023-03-19T01:09:46;22.95;;;13.80;;
77571;SDS011;67214;47.454;18.966;2023-03-19T01:12:13;24.05;;;15.48;;
77571;SDS011;67214;47.454;18.966;2023-03-19T01:14:40;25.37;;;15.13;;
77571;SDS011;67214;47.454;18.966;2023-03-19T01:17:08;21.65;;;13.93;;
77571;SDS011;67214;47.454;18.966;2023-03-19T01:19:35;25.60;;;15.20;;
77571;SDS011;67214;47.454;18.966;2023-03-19T01:22:03;25.60;;;15.13;;
77571;SDS011;67214;47.454;18.966;2023-03-19T01:24:31;22.62;;;14.98;;
77571;SDS011;67214;47.454;18.966;2023-03-19T01:26:58;23.35;;;14.63;;
77571;SDS011;67214;47.454;18.966;2023-03-19T01:29:25;24.75;;;15.48;;
77571;SDS011;67214;47.454;18.966;2023-03-19T01:31:53;24.02;;;15.68;;
77571;SDS011;67214;47.454;18.966;2023-03-19T01:34:20;25.15;;;14.98;;
77571;SDS011;67214;47.454;18.966;2023-03-19T01:36:48;26.85;;;15.50;;
77571;SDS011;67214;47.454;18.966;2023-03-19T01:39:17;24.77;;;15.40;;
77571;SDS011;67214;47.454;18.966;2023-03-19T01:41:44;22.95;;;13.68;;
77571;SDS011;67214;47.454;18.966;2023-03-19T01:44:28;23.92;;;14.38;;
77571;SDS011;67214;47.454;18.966;2023-03-19T01:49:26;22.50;;;14.50;;
77571;SDS011;67214;47.454;18.966;2023-03-19T01:51:54;23.65;;;14.68;;
77571;SDS011;67214;47.454;18.966;2023-03-19T01:54:24;28.27;;;15.75;;
77571;SDS011;67214;47.454;18.966;2023-03-19T01:57:00;25.20;;;15.88;;
77571;SDS011;67214;47.454;18.966;2023-03-19T01:59:30;29.12;;;16.77;;
77571;SDS011;67214;47.454;18.966;2023-03-19T02:02:05;23.85;;;14.87;;
77571;SDS011;67214;47.454;18.966;2023-03-19T02:04:37;30.82;;;16.80;;
77571;SDS011;67214;47.454;18.966;2023-03-19T02:07:07;26.52;;;17.45;;
77571;SDS011;67214;47.454;18.966;2023-03-19T02:09:37;25.68;;;16.52;;
77571;SDS011;67214;47.454;18.966;2023-03-19T02:12:06;25.90;;;16.67;;
77571;SDS011;67214;47.454;18.966;2023-03-19T02:14:34;27.25;;;15.53;;
77571;SDS011;67214;47.454;18.966;2023-03-19T02:17:02;27.07;;;15.50;;
77571;SDS011;67214;47.454;18.966;2023-03-19T02:22:17;29.45;;;17.00;;
77571;SDS011;67214;47.454;18.966;2023-03-19T02:24:50;26.05;;;16.40;;
77571;SDS011;67214;47.454;18.966;2023-03-19T02:27:25;24.52;;;16.37;;
77571;SDS011;67214;47.454;18.966;2023-03-19T02:29:53;27.52;;;16.37;;
77571;SDS011;67214;47.454;18.966;2023-03-19T02:32:21;28.75;;;16.70;;
77571;SDS011;67214;47.454;18.966;2023-03-19T02:34:48;29.10;;;15.63;;
77571;SDS011;67214;47.454;18.966;2023-03-19T02:37:20;27.50;;;15.80;;
77571;SDS011;67214;47.454;18.966;2023-03-19T02:40:02;24.40;;;15.60;;
77571;SDS011;67214;47.454;18.966;2023-03-19T02:42:32;26.77;;;15.08;;
77571;SDS011;67214;47.454;18.966;2023-03-19T02:45:00;27.45;;;16.02;;
77571;SDS011;67214;47.454;18.966;2023-03-19T02:47:27;24.02;;;15.32;;
77571;SDS011;67214;47.454;18.966;2023-03-19T02:49:55;22.00;;;14.60;;
77571;SDS011;67214;47.454;18.966;2023-03-19T02:52:22;23.50;;;14.60;;
77571;SDS011;67214;47.454;18.966;2023-03-19T02:54:50;20.70;;;14.25;;
77571;SDS011;67214;47.454;18.966;2023-03-19T02:57:17;24.20;;;14.50;;
77571;SDS011;67214;47.454;18.966;2023-03-19T02:59:45;27.87;;;15.43;;
77571;SDS011;67214;47.454;18.966;2023-03-19T03:02:12;23.40;;;13.88;;
77571;SDS011;67214;47.454;18.966;2023-03-19T03:04:40;25.20;;;15.48;;
77571;SDS011;67214;47.454;18.966;2023-03-19T03:07:07;28.32;;;15.93;;
77571;SDS011;67214;47.454;18.966;2023-03-19T03:09:35;22.87;;;14.00;;
77571;SDS011;67214;47.454;18.966;2023-03-19T03:12:02;26.00;;;14.60;;
77571;SDS011;67214;47.454;18.966;2023-03-19T03:14:30;20.92;;;13.28;;
77571;SDS011;67214;47.454;18.966;2023-03-19T03:16:58;23.80;;;13.35;;
77571;SDS011;67214;47.454;18.966;2023-03-19T03:19:25;21.73;;;14.45;;
77571;SDS011;67214;47.454;18.966;2023-03-19T03:21:53;22.15;;;13.03;;
77571;SDS011;67214;47.454;18.966;2023-03-19T03:24:20;22.65;;;12.78;;
77571;SDS011;67214;47.454;18.966;2023-03-19T03:26:48;19.27;;;11.93;;
77571;SDS011;67214;47.454;18.966;2023-03-19T03:29:16;23.35;;;11.90;;
77571;SDS011;67214;47.454;18.966;2023-03-19T03:31:44;21.97;;;12.28;;
77571;SDS011;67214;47.454;18.966;2023-03-19T03:34:11;19.50;;;11.57;;
77571;SDS011;67214;47.454;18.966;2023-03-19T03:36:39;19.67;;;11.73;;
77571;SDS011;67214;47.454;18.966;2023-03-19T03:39:06;18.92;;;11.90;;
77571;SDS011;67214;47.454;18.966;2023-03-19T03:41:34;20.72;;;12.60;;
77571;SDS011;67214;47.454;18.966;2023-03-19T03:44:02;16.93;;;11.22;;
77571;SDS011;67214;47.454;18.966;2023-03-19T03:46:29;20.02;;;11.95;;
77571;SDS011;67214;47.454;18.966;2023-03-19T03:48:57;17.30;;;11.22;;
77571;SDS011;67214;47.454;18.966;2023-03-19T03:51:24;24.00;;;13.28;;
77571;SDS011;67214;47.454;18.966;2023-03-19T03:53:52;20.35;;;12.95;;
77571;SDS011;67214;47.454;18.966;2023-03-19T03:56:19;22.17;;;13.15;;
77571;SDS011;67214;47.454;18.966;2023-03-19T03:58:47;18.12;;;11.57;;
77571;SDS011;67214;47.454;18.966;2023-03-19T04:01:14;20.30;;;13.38;;
77571;SDS011;67214;47.454;18.966;2023-03-19T04:03:43;19.87;;;12.60;;
77571;SDS011;67214;47.454;18.966;2023-03-19T04:06:14;20.40;;;13.43;;
77571;SDS011;67214;47.454;18.966;2023-03-19T04:08:43;20.37;;;13.32;;
77571;SDS011;67214;47.454;18.966;2023-03-19T04:11:11;18.77;;;12.15;;
77571;SDS011;67214;47.454;18.966;2023-03-19T04:13:39;17.92;;;11.60;;
77571;SDS011;67214;47.454;18.966;2023-03-19T04:16:07;20.08;;;11.45;;
77571;SDS011;67214;47.454;18.966;2023-03-19T04:18:36;20.82;;;11.80;;
77571;SDS011;67214;47.454;18.966;2023-03-19T04:21:04;18.30;;;11.30;;
77571;SDS011;67214;47.454;18.966;2023-03-19T04:23:33;20.68;;;12.33;;
77571;SDS011;67214;47.454;18.966;2023-03-19T04:26:01;18.75;;;12.15;;
77571;SDS011;67214;47.454;18.966;2023-03-19T04:28:31;21.90;;;12.47;;
77571;SDS011;67214;47.454;18.966;2023-03-19T04:31:05;18.23;;;11.10;;
77571;SDS011;67214;47.454;18.966;2023-03-19T04:33:30;15.35;;;9.73;;
77571;SDS011;67214;47.454;18.966;2023-03-19T04:35:58;17.25;;;10.50;;
77571;SDS011;67214;47.454;18.966;2023-03-19T04:38:26;16.12;;;10.40;;
77571;SDS011;67214;47.454;18.966;2023-03-19T04:40:54;18.73;;;11.03;;
77571;SDS011;67214;47.454;18.966;2023-03-19T04:43:22;18.12;;;10.40;;
77571;SDS011;67214;47.454;18.966;2023-03-19T04:45:50;18.50;;;10.32;;
77571;SDS011;67214;47.454;18.966;2023-03-19T04:48:18;17.35;;;10.38;;
77571;SDS011;67214;47.454;18.966;2023-03-19T04:50:46;21.05;;;11.05;;
77571;SDS011;67214;47.454;18.966;2023-03-19T04:53:15;19.67;;;10.58;;
77571;SDS011;67214;47.454;18.966;2023-03-19T04:55:43;19.87;;;11.53;;
77571;SDS011;67214;47.454;18.966;2023-03-19T04:58:12;19.20;;;11.85;;
77571;SDS011;67214;47.454;18.966;2023-03-19T05:00:39;15.95;;;9.98;;
77571;SDS011;67214;47.454;18.966;2023-03-19T05:03:07;15.00;;;10.82;;
77571;SDS011;67214;47.454;18.966;2023-03-19T05:05:34;17.75;;;10.80;;
77571;SDS011;67214;47.454;18.966;2023-03-19T05:08:02;14.55;;;10.10;;
77571;SDS011;67214;47.454;18.966;2023-03-19T05:10:29;16.35;;;9.85;;
77571;SDS011;67214;47.454;18.966;2023-03-19T05:12:57;15.45;;;9.98;;
77571;SDS011;67214;47.454;18.966;2023-03-19T05:15:24;16.07;;;10.38;;
77571;SDS011;67214;47.454;18.966;2023-03-19T05:17:52;21.95;;;10.75;;
77571;SDS011;67214;47.454;18.966;2023-03-19T05:20:20;19.32;;;10.95;;
77571;SDS011;67214;47.454;18.966;2023-03-19T05:22:48;17.52;;;11.08;;
77571;SDS011;67214;47.454;18.966;2023-03-19T05:25:17;16.73;;;10.18;;
77571;SDS011;67214;47.454;18.966;2023-03-19T05:27:45;15.43;;;9.03;;
77571;SDS011;67214;47.454;18.966;2023-03-19T05:30:12;17.35;;;9.93;;
77571;SDS011;67214;47.454;18.966;2023-03-19T05:32:41;12.05;;;8.63;;
77571;SDS011;67214;47.454;18.966;2023-03-19T05:35:11;12.10;;;7.75;;
77571;SDS011;67214;47.454;18.966;2023-03-19T05:37:39;15.25;;;9.25;;
77571;SDS011;67214;47.454;18.966;2023-03-19T05:40:07;12.28;;;8.28;;
77571;SDS011;67214;47.454;18.966;2023-03-19T05:42:35;15.18;;;10.00;;
77571;SDS011;67214;47.454;18.966;2023-03-19T05:45:03;13.62;;;9.10;;
77571;SDS011;67214;47.454;18.966;2023-03-19T05:47:30;14.78;;;8.98;;
77571;SDS011;67214;47.454;18.966;2023-03-19T05:50:02;13.85;;;8.43;;
77571;SDS011;67214;47.454;18.966;2023-03-19T05:52:30;13.13;;;7.95;;
77571;SDS011;67214;47.454;18.966;2023-03-19T05:54:57;13.20;;;8.05;;
77571;SDS011;67214;47.454;18.966;2023-03-19T05:57:25;12.70;;;8.18;;
77571;SDS011;67214;47.454;18.966;2023-03-19T05:59:55;12.80;;;8.13;;
77571;SDS011;67214;47.454;18.966;2023-03-19T06:02:23;12.55;;;7.30;;
77571;SDS011;67214;47.454;18.966;2023-03-19T06:04:50;11.20;;;7.47;;
77571;SDS011;67214;47.454;18.966;2023-03-19T06:07:18;11.40;;;6.95;;
77571;SDS011;67214;47.454;18.966;2023-03-19T06:09:45;12.37;;;7.70;;
77571;SDS011;67214;47.454;18.966;2023-03-19T06:12:13;13.20;;;7.42;;
77571;SDS011;67214;47.454;18.966;2023-03-19T06:14:41;14.63;;;7.87;;
77571;SDS011;67214;47.454;18.966;2023-03-19T06:17:08;10.28;;;7.40;;
77571;SDS011;67214;47.454;18.966;2023-03-19T06:19:36;10.85;;;7.35;;
77571;SDS011;67214;47.454;18.966;2023-03-19T06:22:03;15.03;;;7.17;;
77571;SDS011;67214;47.454;18.966;2023-03-19T06:24:31;12.88;;;7.92;;
77571;SDS011;67214;47.454;18.966;2023-03-19T06:26:58;13.60;;;8.15;;
77571;SDS011;67214;47.454;18.966;2023-03-19T06:29:26;12.37;;;8.10;;
77571;SDS011;67214;47.454;18.966;2023-03-19T06:31:53;12.85;;;7.25;;
77571;SDS011;67214;47.454;18.966;2023-03-19T06:34:21;12.53;;;8.18;;
77571;SDS011;67214;47.454;18.966;2023-03-19T06:36:48;14.80;;;10.00;;
77571;SDS011;67214;47.454;18.966;2023-03-19T06:39:17;14.95;;;8.13;;
77571;SDS011;67214;47.454;18.966;2023-03-19T06:41:45;12.55;;;7.45;;
77571;SDS011;67214;47.454;18.966;2023-03-19T06:44:13;12.85;;;8.40;;
77571;SDS011;67214;47.454;18.966;2023-03-19T06:46:40;11.45;;;7.87;;
77571;SDS011;67214;47.454;18.966;2023-03-19T06:49:08;16.48;;;9.18;;
77571;SDS011;67214;47.454;18.966;2023-03-19T06:51:36;15.90;;;8.98;;
77571;SDS011;67214;47.454;18.966;2023-03-19T06:54:03;12.30;;;9.10;;
77571;SDS011;67214;47.454;18.966;2023-03-19T06:56:31;11.85;;;7.22;;
77571;SDS011;67214;47.454;18.966;2023-03-19T06:58:58;10.13;;;6.65;;
77571;SDS011;67214;47.454;18.966;2023-03-19T07:01:26;14.13;;;7.78;;
77571;SDS011;67214;47.454;18.966;2023-03-19T07:03:53;12.07;;;7.28;;
77571;SDS011;67214;47.454;18.966;2023-03-19T07:06:22;9.55;;;6.67;;
77571;SDS011;67214;47.454;18.966;2023-03-19T07:08:49;12.30;;;6.75;;
77571;SDS011;67214;47.454;18.966;2023-03-19T07:11:16;8.58;;;6.22;;
77571;SDS011;67214;47.454;18.966;2023-03-19T07:13:44;10.60;;;6.78;;
77571;SDS011;67214;47.454;18.966;2023-03-19T07:16:11;9.60;;;7.10;;
77571;SDS011;67214;47.454;18.966;2023-03-19T07:18:39;10.58;;;6.72;;
77571;SDS011;67214;47.454;18.966;2023-03-19T07:21:06;9.65;;;6.10;;
77571;SDS011;67214;47.454;18.966;2023-03-19T07:23:34;22.17;;;7.33;;
77571;SDS011;67214;47.454;18.966;2023-03-19T07:26:01;14.40;;;6.42;;
77571;SDS011;67214;47.454;18.966;2023-03-19T07:28:29;12.65;;;6.42;;
77571;SDS011;67214;47.454;18.966;2023-03-19T07:30:56;10.35;;;6.65;;
77571;SDS011;67214;47.454;18.966;2023-03-19T07:33:23;6.87;;;5.60;;
77571;SDS011;67214;47.454;18.966;2023-03-19T07:35:51;11.73;;;6.50;;
77571;SDS011;67214;47.454;18.966;2023-03-19T07:38:18;7.90;;;5.97;;
77571;SDS011;67214;47.454;18.966;2023-03-19T07:40:46;14.03;;;6.25;;
77571;SDS011;67214;47.454;18.966;2023-03-19T07:43:15;8.88;;;5.58;;
77571;SDS011;67214;47.454;18.966;2023-03-19T07:45:42;12.10;;;6.47;;
77571;SDS011;67214;47.454;18.966;2023-03-19T07:48:10;8.65;;;5.70;;
77571;SDS011;67214;47.454;18.966;2023-03-19T07:50:38;7.72;;;5.58;;
77571;SDS011;67214;47.454;18.966;2023-03-19T07:53:05;10.13;;;6.22;;
77571;SDS011;67214;47.454;18.966;2023-03-19T07:55:33;8.98;;;6.78;;
77571;SDS011;67214;47.454;18.966;2023-03-19T07:58:01;10.93;;;5.37;;
77571;SDS011;67214;47.454;18.966;2023-03-19T08:00:29;8.90;;;5.62;;
77571;SDS011;67214;47.454;18.966;2023-03-19T08:02:56;9.40;;;5.67;;
77571;SDS011;67214;47.454;18.966;2023-03-19T08:05:25;10.35;;;5.37;;
77571;SDS011;67214;47.454;18.966;2023-03-19T08:07:53;9.43;;;6.67;;
77571;SDS011;67214;47.454;18.966;2023-03-19T08:10:20;8.00;;;5.75;;
77571;SDS011;67214;47.454;18.966;2023-03-19T08:12:48;7.87;;;5.22;;
77571;SDS011;67214;47.454;18.966;2023-03-19T08:15:15;9.93;;;5.20;;
77571;SDS011;67214;47.454;18.966;2023-03-19T08:17:43;9.55;;;5.03;;
77571;SDS011;67214;47.454;18.966;2023-03-19T08:20:12;25.12;;;8.10;;
77571;SDS011;67214;47.454;18.966;2023-03-19T08:22:42;13.75;;;5.92;;
77571;SDS011;67214;47.454;18.966;2023-03-19T08:25:11;7.42;;;5.25;;
77571;SDS011;67214;47.454;18.966;2023-03-19T08:27:39;11.20;;;5.70;;
77571;SDS011;67214;47.454;18.966;2023-03-19T08:30:07;9.15;;;5.40;;
77571;SDS011;67214;47.454;18.966;2023-03-19T08:32:35;9.75;;;4.90;;
77571;SDS011;67214;47.454;18.966;2023-03-19T08:35:03;7.92;;;5.83;;
77571;SDS011;67214;47.454;18.966;2023-03-19T08:37:31;7.15;;;4.70;;
77571;SDS011;67214;47.454;18.966;2023-03-19T08:39:59;6.70;;;4.37;;
77571;SDS011;67214;47.454;18.966;2023-03-19T08:42:26;10.55;;;5.42;;
77571;SDS011;67214;47.454;18.966;2023-03-19T08:44:54;7.90;;;5.20;;
77571;SDS011;67214;47.454;18.966;2023-03-19T08:47:22;8.00;;;5.10;;
77571;SDS011;67214;47.454;18.966;2023-03-19T08:49:53;10.28;;;5.87;;
77571;SDS011;67214;47.454;18.966;2023-03-19T08:52:26;9.28;;;5.03;;
77571;SDS011;67214;47.454;18.966;2023-03-19T08:54:53;8.65;;;4.67;;
77571;SDS011;67214;47.454;18.966;2023-03-19T08:57:21;6.95;;;4.70;;
77571;SDS011;67214;47.454;18.966;2023-03-19T08:59:48;7.85;;;5.10;;
77571;SDS011;67214;47.454;18.966;2023-03-19T09:02:17;5.60;;;4.67;;
77571;SDS011;67214;47.454;18.966;2023-03-19T09:04:45;7.15;;;4.70;;
77571;SDS011;67214;47.454;18.966;2023-03-19T09:07:12;6.95;;;4.83;;
77571;SDS011;67214;47.454;18.966;2023-03-19T09:09:44;10.85;;;5.75;;
77571;SDS011;67214;47.454;18.966;2023-03-19T09:12:12;10.13;;;5.22;;
77571;SDS011;67214;47.454;18.966;2023-03-19T09:14:41;7.33;;;4.75;;
77571;SDS011;67214;47.454;18.966;2023-03-19T09:17:09;9.40;;;4.67;;
77571;SDS011;67214;47.454;18.966;2023-03-19T09:19:38;9.70;;;5.40;;
77571;SDS011;67214;47.454;18.966;2023-03-19T09:22:06;9.53;;;4.80;;
77571;SDS011;67214;47.454;18.966;2023-03-19T09:24:34;11.18;;;5.62;;
77571;SDS011;67214;47.454;18.966;2023-03-19T09:27:01;7.65;;;5.17;;
77571;SDS011;67214;47.454;18.966;2023-03-19T09:29:29;6.92;;;5.17;;
77571;SDS011;67214;47.454;18.966;2023-03-19T09:31:56;7.28;;;5.47;;
77571;SDS011;67214;47.454;18.966;2023-03-19T09:34:25;9.05;;;4.70;;
77571;SDS011;67214;47.454;18.966;2023-03-19T09:36:52;6.15;;;4.35;;
77571;SDS011;67214;47.454;18.966;2023-03-19T09:39:20;7.95;;;4.97;;
77571;SDS011;67214;47.454;18.966;2023-03-19T09:44:42;7.75;;;5.03;;
77571;SDS011;67214;47.454;18.966;2023-03-19T09:49:45;8.23;;;5.50;;
77571;SDS011;67214;47.454;18.966;2023-03-19T09:57:46;7.85;;;5.47;;
77571;SDS011;67214;47.454;18.966;2023-03-19T10:00:18;8.80;;;5.35;;
77571;SDS011;67214;47.454;18.966;2023-03-19T10:02:44;8.50;;;5.33;;
77571;SDS011;67214;47.454;18.966;2023-03-19T10:05:24;7.20;;;4.47;;
77571;SDS011;67214;47.454;18.966;2023-03-19T10:10:47;12.80;;;6.15;;
77571;SDS011;67214;47.454;18.966;2023-03-19T10:16:13;13.88;;;5.50;;
77571;SDS011;67214;47.454;18.966;2023-03-19T10:18:43;7.17;;;5.08;;
77571;SDS011;67214;47.454;18.966;2023-03-19T10:21:17;9.75;;;5.47;;
77571;SDS011;67214;47.454;18.966;2023-03-19T10:26:43;8.73;;;5.00;;
77571;SDS011;67214;47.454;18.966;2023-03-19T10:29:18;6.85;;;4.80;;
77571;SDS011;67214;47.454;18.966;2023-03-19T10:31:51;5.55;;;4.45;;
77571;SDS011;67214;47.454;18.966;2023-03-19T10:34:32;8.48;;;4.70;;
77571;SDS011;67214;47.454;18.966;2023-03-19T10:39:41;8.25;;;5.37;;
77571;SDS011;67214;47.454;18.966;2023-03-19T10:47:52;7.37;;;4.80;;
77571;SDS011;67214;47.454;18.966;2023-03-19T10:50:26;7.72;;;5.12;;
77571;SDS011;67214;47.454;18.966;2023-03-19T10:53:38;6.35;;;4.67;;
77571;SDS011;67214;47.454;18.966;2023-03-19T10:55:29;7.83;;;4.60;;
77571;SDS011;67214;47.454;18.966;2023-03-19T10:58:08;5.85;;;4.65;;
77571;SDS011;67214;47.454;18.966;2023-03-19T11:00:31;5.83;;;4.53;;
77571;SDS011;67214;47.454;18.966;2023-03-19T11:03:00;10.55;;;4.60;;
77571;SDS011;67214;47.454;18.966;2023-03-19T11:05:31;7.20;;;5.08;;
77571;SDS011;67214;47.454;18.966;2023-03-19T11:08:01;8.03;;;5.47;;
77571;SDS011;67214;47.454;18.966;2023-03-19T11:10:36;8.28;;;5.03;;
77571;SDS011;67214;47.454;18.966;2023-03-19T11:15:45;6.83;;;4.55;;
77571;SDS011;67214;47.454;18.966;2023-03-19T11:18:18;7.67;;;4.65;;
77571;SDS011;67214;47.454;18.966;2023-03-19T11:20:59;7.35;;;4.90;;
77571;SDS011;67214;47.454;18.966;2023-03-19T11:23:29;9.08;;;4.75;;
77571;SDS011;67214;47.454;18.966;2023-03-19T11:25:59;6.95;;;4.85;;
77571;SDS011;67214;47.454;18.966;2023-03-19T11:28:27;6.85;;;4.97;;
77571;SDS011;67214;47.454;18.966;2023-03-19T11:39:29;7.20;;;4.53;;
77571;SDS011;67214;47.454;18.966;2023-03-19T11:45:12;7.83;;;4.45;;
77571;SDS011;67214;47.454;18.966;2023-03-19T11:53:37;6.55;;;4.12;;
77571;SDS011;67214;47.454;18.966;2023-03-19T11:56:21;9.23;;;4.50;;
77571;SDS011;67214;47.454;18.966;2023-03-19T12:07:06;7.83;;;4.90;;
77571;SDS011;67214;47.454;18.966;2023-03-19T12:12:37;6.17;;;4.30;;
77571;SDS011;67214;47.454;18.966;2023-03-19T12:15:08;6.67;;;4.12;;
77571;SDS011;67214;47.454;18.966;2023-03-19T12:20:55;6.37;;;4.75;;
77571;SDS011;67214;47.454;18.966;2023-03-19T12:26:20;5.15;;;4.22;;
77571;SDS011;67214;47.454;18.966;2023-03-19T12:31:26;6.12;;;5.10;;
77571;SDS011;67214;47.454;18.966;2023-03-19T12:34:04;7.67;;;4.97;;
77571;SDS011;67214;47.454;18.966;2023-03-19T12:37:34;6.75;;;4.75;;
77571;SDS011;67214;47.454;18.966;2023-03-19T12:39:24;6.03;;;4.95;;
77571;SDS011;67214;47.454;18.966;2023-03-19T12:41:49;7.83;;;4.87;;
77571;SDS011;67214;47.454;18.966;2023-03-19T12:44:23;7.70;;;5.05;;
77571;SDS011;67214;47.454;18.966;2023-03-19T12:47:03;7.30;;;6.12;;
77571;SDS011;67214;47.454;18.966;2023-03-19T12:52:41;6.67;;;4.12;;
77571;SDS011;67214;47.454;18.966;2023-03-19T12:57:53;8.40;;;5.83;;
77571;SDS011;67214;47.454;18.966;2023-03-19T13:05:40;7.28;;;4.45;;
77571;SDS011;67214;47.454;18.966;2023-03-19T13:10:50;7.15;;;5.60;;
77571;SDS011;67214;47.454;18.966;2023-03-19T13:16:03;8.50;;;5.40;;
77571;SDS011;67214;47.454;18.966;2023-03-19T13:18:42;6.65;;;5.42;;
77571;SDS011;67214;47.454;18.966;2023-03-19T13:21:33;9.80;;;5.80;;
77571;SDS011;67214;47.454;18.966;2023-03-19T13:24:01;7.87;;;5.58;;
77571;SDS011;67214;47.454;18.966;2023-03-19T13:29:06;8.18;;;5.67;;
77571;SDS011;67214;47.454;18.966;2023-03-19T13:31:37;8.63;;;5.60;;
77571;SDS011;67214;47.454;18.966;2023-03-19T13:34:06;6.87;;;4.75;;
77571;SDS011;67214;47.454;18.966;2023-03-19T13:36:36;9.80;;;5.03;;
77571;SDS011;67214;47.454;18.966;2023-03-19T13:39:10;7.85;;;5.20;;
77571;SDS011;67214;47.454;18.966;2023-03-19T13:44:23;7.80;;;5.30;;
77571;SDS011;67214;47.454;18.966;2023-03-19T13:57:59;8.25;;;5.40;;
77571;SDS011;67214;47.454;18.966;2023-03-19T14:03:24;6.28;;;5.12;;
77571;SDS011;67214;47.454;18.966;2023-03-19T14:05:54;7.87;;;4.45;;
77571;SDS011;67214;47.454;18.966;2023-03-19T14:08:25;6.33;;;5.15;;
77571;SDS011;67214;47.454;18.966;2023-03-19T14:10:55;6.95;;;4.97;;
77571;SDS011;67214;47.454;18.966;2023-03-19T14:13:27;5.62;;;4.78;;
77571;SDS011;67214;47.454;18.966;2023-03-19T14:16:20;6.58;;;4.90;;
77571;SDS011;67214;47.454;18.966;2023-03-19T14:18:32;7.20;;;5.25;;
77571;SDS011;67214;47.454;18.966;2023-03-19T14:21:04;9.18;;;5.62;;
77571;SDS011;67214;47.454;18.966;2023-03-19T14:23:33;6.90;;;5.25;;
77571;SDS011;67214;47.454;18.966;2023-03-19T14:26:03;7.78;;;5.72;;
77571;SDS011;67214;47.454;18.966;2023-03-19T14:28:52;6.85;;;5.22;;
77571;SDS011;67214;47.454;18.966;2023-03-19T14:31:23;7.62;;;4.78;;
77571;SDS011;67214;47.454;18.966;2023-03-19T14:36:48;8.65;;;5.70;;
77571;SDS011;67214;47.454;18.966;2023-03-19T14:39:15;7.05;;;5.20;;
77571;SDS011;67214;47.454;18.966;2023-03-19T14:41:49;8.25;;;5.47;;
77571;SDS011;67214;47.454;18.966;2023-03-19T14:44:35;7.33;;;5.47;;
77571;SDS011;67214;47.454;18.966;2023-03-19T14:47:10;7.75;;;5.20;;
77571;SDS011;67214;47.454;18.966;2023-03-19T14:52:43;9.05;;;5.05;;
77571;SDS011;67214;47.454;18.966;2023-03-19T14:55:18;8.88;;;5.65;;
77571;SDS011;67214;47.454;18.966;2023-03-19T14:57:46;6.72;;;4.97;;
77571;SDS011;67214;47.454;18.966;2023-03-19T15:00:18;7.12;;;5.53;;
77571;SDS011;67214;47.454;18.966;2023-03-19T15:02:44;6.70;;;4.90;;
77571;SDS011;67214;47.454;18.966;2023-03-19T15:05:15;6.17;;;5.05;;
77571;SDS011;67214;47.454;18.966;2023-03-19T15:08:04;10.23;;;5.33;;
77571;SDS011;67214;47.454;18.966;2023-03-19T15:10:59;9.40;;;5.15;;
77571;SDS011;67214;47.454;18.966;2023-03-19T15:16:02;7.70;;;6.22;;
77571;SDS011;67214;47.454;18.966;2023-03-19T15:18:36;8.25;;;5.40;;
77571;SDS011;67214;47.454;18.966;2023-03-19T15:21:04;9.25;;;5.78;;
77571;SDS011;67214;47.454;18.966;2023-03-19T15:23:32;8.18;;;6.15;;
77571;SDS011;67214;47.454;18.966;2023-03-19T15:26:01;10.55;;;5.70;;
77571;SDS011;67214;47.454;18.966;2023-03-19T15:28:31;6.87;;;5.22;;
77571;SDS011;67214;47.454;18.966;2023-03-19T15:31:02;7.53;;;5.20;;
77571;SDS011;67214;47.454;18.966;2023-03-19T15:33:32;8.68;;;5.80;;
77571;SDS011;67214;47.454;18.966;2023-03-19T15:36:11;12.58;;;7.62;;
77571;SDS011;67214;47.454;18.966;2023-03-19T15:38:43;8.18;;;5.50;;
77571;SDS011;67214;47.454;18.966;2023-03-19T15:41:23;7.95;;;5.40;;
77571;SDS011;67214;47.454;18.966;2023-03-19T15:43:53;7.53;;;5.67;;
77571;SDS011;67214;47.454;18.966;2023-03-19T15:46:27;8.80;;;6.25;;
77571;SDS011;67214;47.454;18.966;2023-03-19T15:49:01;8.60;;;5.87;;
77571;SDS011;67214;47.454;18.966;2023-03-19T15:51:37;8.55;;;5.87;;
77571;SDS011;67214;47.454;18.966;2023-03-19T15:54:07;10.18;;;5.78;;
77571;SDS011;67214;47.454;18.966;2023-03-19T15:56:35;8.28;;;5.65;;
77571;SDS011;67214;47.454;18.966;2023-03-19T15:59:04;8.40;;;6.05;;
77571;SDS011;67214;47.454;18.966;2023-03-19T16:01:32;8.68;;;5.25;;
77571;SDS011;67214;47.454;18.966;2023-03-19T16:04:07;10.05;;;6.20;;
77571;SDS011;67214;47.454;18.966;2023-03-19T16:06:37;10.50;;;5.80;;
77571;SDS011;67214;47.454;18.966;2023-03-19T16:11:59;10.25;;;5.37;;
77571;SDS011;67214;47.454;18.966;2023-03-19T16:14:32;23.00;;;7.55;;
77571;SDS011;67214;47.454;18.966;2023-03-19T16:17:01;8.13;;;5.47;;
77571;SDS011;67214;47.454;18.966;2023-03-19T16:19:35;11.05;;;5.58;;
77571;SDS011;67214;47.454;18.966;2023-03-19T16:22:38;10.30;;;5.85;;
77571;SDS011;67214;47.454;18.966;2023-03-19T16:24:45;10.78;;;5.90;;
77571;SDS011;67214;47.454;18.966;2023-03-19T16:27:20;10.80;;;5.65;;
77571;SDS011;67214;47.454;18.966;2023-03-19T16:29:57;17.95;;;5.95;;
77571;SDS011;67214;47.454;18.966;2023-03-19T16:32:27;9.20;;;5.40;;
77571;SDS011;67214;47.454;18.966;2023-03-19T16:34:56;8.93;;;5.80;;